Time;durP1;ratioP1;P1;durP2;ratioP2;P2;SDS_P1;SDS_P2;PMS_P1;PMS_P2;Temp;Humidity;BMP_temperature;BMP_pressure;BME280_temperature;BME280_humidity;BME280_pressure;Samples;Min_cycle;Max_cycle;Signal;HPM_P1;HPM_P2
2021/09/18 00:06:40;;;;;;;21.98;14.73;;;12.20;99.90;;;;;;20832559;28;20037;-52
2021/09/18 00:16:42;;;;;;;25.23;16.33;;;11.80;99.90;;;;;;20832113;28;20058;-52
2021/09/18 00:26:44;;;;;;;40.95;22.27;;;11.70;99.90;;;;;;20830196;28;20088;-52
2021/09/18 00:36:46;;;;;;;33.65;17.20;;;11.50;99.90;;;;;;20830716;28;20045;-54
2021/09/18 00:46:52;;;;;;;31.88;16.70;;;11.40;99.90;;;;;;20830211;28;20068;-51
2021/09/18 00:56:55;;;;;;;40.70;20.25;;;11.20;99.90;;;;;;20829151;28;20037;-52
2021/09/18 01:06:57;;;;;;;44.45;22.92;;;11.10;99.90;;;;;;20829077;28;20037;-52
2021/09/18 01:17:00;;;;;;;38.03;19.55;;;11.10;99.90;;;;;;20827173;28;20338;-52
2021/09/18 01:27:02;;;;;;;37.92;18.60;;;11.20;99.90;;;;;;20826175;28;20030;-53
2021/09/18 01:37:04;;;;;;;38.13;20.40;;;11.30;99.90;;;;;;20824411;28;20079;-51
2021/09/18 01:47:05;;;;;;;31.80;16.63;;;11.50;99.90;;;;;;20855532;28;20078;-51
2021/09/18 01:57:08;;;;;;;32.15;16.45;;;11.90;99.90;;;;;;20906058;28;20029;-52
2021/09/18 02:07:14;;;;;;;38.08;18.50;;;12.10;99.90;;;;;;20905780;28;20094;-56
2021/09/18 02:17:16;;;;;;;26.55;14.73;;;12.40;99.90;;;;;;20905107;28;20443;-51
2021/09/18 02:27:18;;;;;;;21.55;13.27;;;12.80;99.90;;;;;;20904270;28;20106;-51
2021/09/18 02:37:20;;;;;;;16.55;9.43;;;13.00;99.90;;;;;;20835323;28;20265;-54
2021/09/18 02:47:22;;;;;;;14.68;8.68;;;13.00;99.90;;;;;;20820670;28;20038;-50
2021/09/18 02:57:24;;;;;;;16.35;9.05;;;13.00;99.90;;;;;;20820804;28;20042;-52
2021/09/18 03:07:26;;;;;;;14.40;8.82;;;13.00;99.90;;;;;;20820773;28;20045;-56
2021/09/18 03:17:28;;;;;;;13.52;8.18;;;13.10;99.90;;;;;;20819889;28;20025;-51
2021/09/18 03:27:30;;;;;;;12.52;8.00;;;13.10;99.90;;;;;;20819635;28;20536;-51
2021/09/18 03:37:34;;;;;;;10.85;6.85;;;13.20;99.90;;;;;;20819084;28;20567;-54
2021/09/18 03:47:37;;;;;;;9.65;6.10;;;13.10;99.90;;;;;;20819007;28;20273;-51
2021/09/18 03:57:39;;;;;;;8.30;5.95;;;13.10;99.90;;;;;;20817305;28;20547;-51
2021/09/18 04:07:41;;;;;;;8.63;5.15;;;13.20;99.90;;;;;;20828764;28;20045;-51
2021/09/18 04:17:42;;;;;;;8.90;5.32;;;13.20;99.90;;;;;;20832021;28;20036;-52
2021/09/18 04:27:45;;;;;;;6.88;4.75;;;13.00;99.90;;;;;;20830881;28;20033;-53
2021/09/18 04:37:47;;;;;;;9.13;5.50;;;12.90;99.90;;;;;;20830704;28;20053;-54
2021/09/18 04:47:49;;;;;;;10.00;5.32;;;12.80;99.90;;;;;;20829602;28;20547;-55
2021/09/18 04:57:51;;;;;;;9.65;5.93;;;12.80;99.90;;;;;;20811452;28;20398;-53
2021/09/18 05:07:53;;;;;;;10.15;5.85;;;12.70;99.90;;;;;;20827050;28;20540;-50
2021/09/18 05:17:54;;;;;;;8.55;5.55;;;12.80;99.90;;;;;;20827456;28;20083;-51
2021/09/18 05:27:57;;;;;;;11.95;6.30;;;12.90;99.90;;;;;;20826550;28;20536;-51
2021/09/18 05:37:59;;;;;;;10.02;5.78;;;13.10;99.90;;;;;;20825382;28;20050;-55
2021/09/18 05:48:04;;;;;;;11.80;5.78;;;13.30;99.90;;;;;;20863482;28;20090;-53
2021/09/18 05:58:07;;;;;;;9.68;5.28;;;13.50;99.90;;;;;;20906877;28;20033;-52
2021/09/18 06:08:08;;;;;;;8.57;5.82;;;13.60;99.90;;;;;;20904750;28;20083;-50
2021/09/18 06:18:11;;;;;;;8.10;4.97;;;13.60;99.90;;;;;;20905708;28;20033;-55
2021/09/18 06:28:13;;;;;;;6.13;4.38;;;13.60;99.90;;;;;;20904425;28;20055;-53
2021/09/18 06:38:21;;;;;;;7.32;5.18;;;13.70;99.90;;;;;;20830580;28;20067;-51
2021/09/18 06:48:23;;;;;;;9.32;5.38;;;13.80;99.90;;;;;;20903864;28;20421;-50
2021/09/18 06:58:25;;;;;;;9.50;5.63;;;13.80;99.90;;;;;;20903130;28;20063;-52
2021/09/18 07:08:27;;;;;;;8.60;5.38;;;13.80;99.90;;;;;;20902790;28;20574;-51
2021/09/18 07:18:29;;;;;;;9.88;6.07;;;13.90;99.90;;;;;;20903669;28;20029;-51
2021/09/18 07:28:31;;;;;;;13.93;6.78;;;14.00;99.90;;;;;;20901915;28;20376;-52
2021/09/18 07:38:33;;;;;;;10.07;5.55;;;14.10;99.90;;;;;;20827673;28;20092;-51
2021/09/18 07:48:35;;;;;;;7.43;4.57;;;14.40;99.90;;;;;;20834342;28;20030;-55
2021/09/18 07:58:38;;;;;;;9.88;5.70;;;14.80;99.90;;;;;;20833375;28;20436;-54
2021/09/18 08:08:40;;;;;;;7.72;4.68;;;14.80;99.90;;;;;;20833178;28;20037;-55
2021/09/18 08:18:42;;;;;;;7.82;5.53;;;14.90;99.90;;;;;;20832170;28;20091;-52
2021/09/18 08:28:44;;;;;;;11.40;5.68;;;14.80;99.90;;;;;;20831788;28;20029;-53
2021/09/18 08:38:46;;;;;;;8.18;5.90;;;14.60;99.90;;;;;;20829642;28;20045;-50
2021/09/18 08:48:50;;;;;;;7.78;4.88;;;14.70;99.90;;;;;;20828490;28;20037;-50
2021/09/18 08:58:52;;;;;;;12.55;6.60;;;14.70;99.90;;;;;;20828073;28;20087;-53
2021/09/18 09:08:58;;;;;;;8.00;5.70;;;14.90;99.90;;;;;;20827972;28;20080;-55
2021/09/18 09:19:16;;;;;;;10.35;6.47;;;15.00;99.90;;;;;;20827737;28;20033;-54
2021/09/18 09:29:44;;;;;;;11.63;6.60;;;14.80;99.90;;;;;;20826570;28;20033;-54
2021/09/18 09:40:02;;;;;;;11.13;7.28;;;14.70;99.90;;;;;;20825432;28;20042;-54
2021/09/18 09:50:05;;;;;;;11.60;6.88;;;14.70;99.90;;;;;;20879663;28;20106;-51
2021/09/18 10:00:09;;;;;;;11.75;6.85;;;14.70;99.90;;;;;;20905555;28;20036;-51
2021/09/18 10:10:13;;;;;;;11.82;7.78;;;14.80;99.90;;;;;;20905645;28;20037;-51
2021/09/18 10:23:14;;;;;;;15.27;8.55;;;14.80;99.90;;;;;;20905010;28;20041;-51
2021/09/18 10:31:00;;;;;;;10.35;7.32;;;14.80;99.90;;;;;;20890148;28;20072;-52
2021/09/18 10:41:09;;;;;;;10.55;6.63;;;15.50;99.90;;;;;;20846330;28;20185;-52
2021/09/18 10:51:34;;;;;;;9.40;5.80;;;15.90;99.90;;;;;;20903439;28;20041;-54
2021/09/18 11:02:34;;;;;;;7.70;6.22;;;16.20;99.90;;;;;;21399588;27;20288;-55
2021/09/18 11:13:10;;;;;;;11.57;8.40;;;15.70;99.90;;;;;;21399895;27;20288;-52
2021/09/18 11:23:33;;;;;;;12.43;8.13;;;15.30;99.90;;;;;;21228464;27;20654;-50
2021/09/18 11:33:54;;;;;;;11.93;8.55;;;15.40;99.90;;;;;;21143214;27;20618;-50
2021/09/18 11:44:16;;;;;;;30.05;9.77;;;15.90;99.90;;;;;;21059358;28;20799;-52
2021/09/18 11:54:37;;;;;;;27.67;11.05;;;16.10;99.90;;;;;;21214681;27;20303;-52
2021/09/18 12:04:58;;;;;;;72.07;14.70;;;15.50;99.90;;;;;;21060215;28;20378;-52
2021/09/18 12:15:27;;;;;;;16.85;11.00;;;15.60;99.90;;;;;;21060437;28;20387;-52
2021/09/18 12:25:59;;;;;;;13.98;9.90;;;15.70;99.90;;;;;;21060306;28;20399;-52
2021/09/18 12:36:23;;;;;;;11.45;8.73;;;16.20;99.90;;;;;;21144444;27;20620;-52
2021/09/18 12:46:56;;;;;;;12.05;7.82;;;17.80;99.90;;;;;;21229001;27;20116;-50
2021/09/18 12:57:21;;;;;;;9.65;7.47;;;19.90;99.90;;;;;;21144201;27;20373;-55
2021/09/18 13:08:00;;;;;;;14.13;8.30;;;20.60;99.90;;;;;;21141910;27;20380;-53
2021/09/18 13:18:23;;;;;;;12.73;8.88;;;19.40;99.90;;;;;;21399736;27;20109;-53
2021/09/18 13:28:49;;;;;;;16.42;10.00;;;18.70;99.90;;;;;;20975266;28;20385;-54
2021/09/18 13:39:09;;;;;;;15.80;9.90;;;17.90;99.90;;;;;;20975521;28;20374;-55
2021/09/18 13:49:33;;;;;;;16.25;10.93;;;17.30;99.90;;;;;;21059315;27;20419;-52
2021/09/18 13:59:54;;;;;;;17.65;11.68;;;16.70;99.90;;;;;;21143278;27;20135;-52
2021/09/18 14:10:15;;;;;;;16.92;11.25;;;16.70;99.90;;;;;;21143276;27;20394;-56
2021/09/18 14:20:37;;;;;;;17.88;11.07;;;16.80;99.90;;;;;;21263377;27;1521015;-50
2021/09/18 14:30:58;;;;;;;13.95;9.63;;;17.00;99.90;;;;;;20975246;28;20153;-54
2021/09/18 14:41:19;;;;;;;14.07;9.63;;;17.10;99.90;;;;;;21058409;27;20804;-51
2021/09/18 14:51:41;;;;;;;14.90;9.68;;;17.60;99.90;;;;;;21228309;27;20455;-53
2021/09/18 15:02:05;;;;;;;16.58;12.18;;;17.30;99.90;;;;;;21399156;27;20288;-55
2021/09/18 15:12:33;;;;;;;16.27;11.15;;;16.70;99.90;;;;;;20975012;28;20383;-53
2021/09/18 15:23:02;;;;;;;16.65;9.88;;;16.60;99.90;;;;;;21399632;27;20292;-56
2021/09/18 15:33:25;;;;;;;14.82;9.70;;;16.40;99.90;;;;;;21400328;27;20349;-54
2021/09/18 15:43:46;;;;;;;12.75;8.32;;;16.50;99.90;;;;;;21143318;27;20380;-54
2021/09/18 15:54:09;;;;;;;13.35;10.13;;;16.30;99.90;;;;;;21143287;27;20704;-50
2021/09/18 16:04:31;;;;;;;14.00;10.25;;;16.20;99.90;;;;;;21143546;27;20136;-51
2021/09/18 16:14:53;;;;;;;15.93;9.98;;;16.00;99.90;;;;;;21400015;27;19950;-55
2021/09/18 16:25:15;;;;;;;14.02;10.00;;;15.80;99.90;;;;;;21142848;27;20386;-53
2021/09/18 16:35:38;;;;;;;17.90;11.63;;;15.60;99.90;;;;;;21227805;27;20596;-53
2021/09/18 16:45:59;;;;;;;16.38;10.65;;;15.50;99.90;;;;;;21143408;27;20125;-50
2021/09/18 16:56:25;;;;;;;18.58;13.25;;;15.30;99.90;;;;;;21142421;27;20928;-52
2021/09/18 17:06:46;;;;;;;20.70;14.43;;;15.20;99.90;;;;;;20973156;28;20134;-53
2021/09/18 17:17:09;;;;;;;20.40;13.02;;;14.90;99.90;;;;;;21401117;27;20000;-56
2021/09/18 17:27:30;;;;;;;24.15;12.68;;;14.80;99.90;;;;;;21401745;27;20102;-54
2021/09/18 17:37:51;;;;;;;;;;;14.70;99.90;;;;;;21145078;27;20155;-55
2021/09/18 17:48:13;;;;;;;19.42;12.75;;;14.70;99.90;;;;;;21143674;27;20972;-55
2021/09/18 17:58:34;;;;;;;19.80;12.85;;;14.60;99.90;;;;;;21229404;27;20107;-54
2021/09/18 18:08:57;;;;;;;18.38;11.45;;;14.60;99.90;;;;;;21144567;27;20391;-53
2021/09/18 18:19:16;;;;;;;20.00;12.77;;;14.60;99.90;;;;;;21144558;27;20380;-51
2021/09/18 18:29:38;;;;;;;20.15;12.48;;;14.50;99.90;;;;;;21144705;27;20550;-53
2021/09/18 18:39:58;;;;;;;20.95;12.98;;;14.50;99.90;;;;;;21143574;27;20129;-53
2021/09/18 18:50:01;;;;;;;23.55;14.38;;;14.40;99.90;;;;;;21143113;28;20023;-54
2021/09/18 19:00:05;;;;;;;23.55;15.20;;;14.20;99.90;;;;;;21142996;28;20379;-55
2021/09/18 19:10:10;;;;;;;25.52;15.35;;;14.20;99.90;;;;;;21142193;28;20100;-53
2021/09/18 19:20:12;;;;;;;25.90;15.80;;;14.30;99.90;;;;;;21142690;28;20096;-54
2021/09/18 19:30:19;;;;;;;26.35;14.02;;;14.30;99.90;;;;;;21130654;28;20565;-52
2021/09/18 19:40:27;;;;;;;23.23;14.95;;;14.40;99.90;;;;;;21056881;28;20066;-52
2021/09/18 19:50:30;;;;;;;25.20;15.55;;;14.50;99.90;;;;;;21003028;28;20036;-54
2021/09/18 20:00:34;;;;;;;22.58;13.52;;;14.50;99.90;;;;;;20998178;28;20085;-51
2021/09/18 20:10:37;;;;;;;25.42;15.07;;;14.50;99.90;;;;;;20997476;28;20028;-51
2021/09/18 20:20:38;;;;;;;21.33;13.77;;;14.50;99.90;;;;;;20996974;28;20036;-55
2021/09/18 20:30:41;;;;;;;24.77;14.60;;;14.50;99.90;;;;;;20995321;28;20097;-52
2021/09/18 20:40:43;;;;;;;27.40;16.75;;;14.50;99.90;;;;;;20995293;28;20047;-53
2021/09/18 20:50:47;;;;;;;25.00;15.68;;;14.40;99.90;;;;;;20994118;28;20036;-52
2021/09/18 21:00:49;;;;;;;31.35;15.07;;;14.30;99.90;;;;;;20992224;28;20032;-51
2021/09/18 21:10:52;;;;;;;24.67;15.15;;;14.10;99.90;;;;;;20992928;28;20032;-56
2021/09/18 21:20:53;;;;;;;29.42;16.15;;;14.00;99.90;;;;;;20991707;28;20036;-51
2021/09/18 21:30:56;;;;;;;28.48;16.35;;;14.00;99.90;;;;;;20990734;28;20059;-52
2021/09/18 21:40:57;;;;;;;25.92;15.73;;;14.10;99.90;;;;;;20990038;28;20036;-53
2021/09/18 21:50:59;;;;;;;27.10;16.25;;;14.00;99.90;;;;;;21053099;28;20541;-57
2021/09/18 22:01:32;;;;;;;27.23;16.13;;;13.90;99.90;;;;;;21072581;28;20039;-52
2021/09/18 22:11:35;;;;;;;27.63;16.83;;;13.90;99.90;;;;;;21053951;28;20036;-54
2021/09/18 22:21:37;;;;;;;30.88;16.67;;;13.90;99.90;;;;;;21072426;28;20032;-54
2021/09/18 22:31:39;;;;;;;27.27;16.60;;;14.00;99.90;;;;;;21092465;28;20063;-48
2021/09/18 22:41:41;;;;;;;24.77;14.52;;;13.90;99.90;;;;;;21095027;28;20032;-50
2021/09/18 22:51:43;;;;;;;27.80;15.02;;;13.80;99.90;;;;;;21090534;28;20028;-49
2021/09/18 23:01:45;;;;;;;29.30;16.55;;;13.70;99.90;;;;;;21089103;28;20028;-49
2021/09/18 23:11:47;;;;;;;18.40;11.13;;;13.70;99.90;;;;;;21085724;28;20028;-49
2021/09/18 23:21:49;;;;;;;7.32;4.35;;;13.60;99.90;;;;;;21095177;28;20047;-49
2021/09/18 23:31:51;;;;;;;10.85;6.95;;;13.30;99.90;;;;;;21086157;28;20047;-49
2021/09/18 23:41:53;;;;;;;15.55;8.80;;;13.10;99.90;;;;;;21026954;28;20028;-48
2021/09/18 23:51:55;;;;;;;12.80;7.20;;;13.10;99.90;;;;;;21021490;28;20051;-49
